Terminal Aerodrome Forecast
Issued by NWS

Home | Current Version | Previous Version | Text Only | Print | Product List | Glossary On
Versions: 1 2 3 4 5 6 7 8 9 10 11 12 13 14 15 16 17 18 19 20 21 22 23 24 25 26 27 28 29 30 31
000
FTUS43 KDMX 111134
TAFFOD
TAF
KFOD 111134Z 1112/1212 VRB02KT P6SM SCT040
     FM111800 18007KT P6SM VCSH BKN035 BKN080
     FM112300 17005KT 2SM -SN BKN015 OVC030
     FM120100 16005KT 1SM -SN BKN009 OVC015
     FM120800 32007KT 5SM BR BKN025 OVC035=

USA.gov is the U.S. government's official web portal to all federal, state and local government web resources and services.